Time;durP1;ratioP1;P1;durP2;ratioP2;P2;SDS_P1;SDS_P2;PMS_P1;PMS_P2;Temp;Humidity;BMP_temperature;BMP_pressure;BME280_temperature;BME280_humidity;BME280_pressure;Samples;Min_cycle;Max_cycle;Signal;HPM_P1;HPM_P2
2022/07/10 00:01:10;;;;;;;3.00;1.30;;;16.10;99.90;;;;;;4970947;28;20569;-47
2022/07/10 00:03:36;;;;;;;5.03;1.55;;;16.10;99.90;;;;;;4975368;28;20029;-46
2022/07/10 00:06:02;;;;;;;7.82;1.23;;;16.00;99.90;;;;;;4974434;28;20035;-46
2022/07/10 00:08:27;;;;;;;4.65;1.60;;;16.00;99.90;;;;;;4975042;28;20023;-48
2022/07/10 00:10:53;;;;;;;7.70;1.50;;;15.90;99.90;;;;;;4974076;28;20023;-48
2022/07/10 00:13:19;;;;;;;3.80;1.40;;;15.90;99.90;;;;;;4974919;28;20109;-50
2022/07/10 00:15:45;;;;;;;4.13;1.33;;;15.80;99.90;;;;;;4975163;28;20027;-49
2022/07/10 00:18:10;;;;;;;5.80;1.75;;;15.80;99.90;;;;;;4973473;28;20018;-50
2022/07/10 00:20:36;;;;;;;3.65;1.55;;;15.70;99.90;;;;;;4974869;28;20042;-49
2022/07/10 00:23:02;;;;;;;4.20;1.08;;;15.70;99.90;;;;;;4975031;28;20027;-50
2022/07/10 00:25:28;;;;;;;3.65;1.33;;;15.60;99.90;;;;;;4974750;28;20110;-52
2022/07/10 00:27:54;;;;;;;9.73;1.70;;;15.60;99.90;;;;;;4973601;28;20035;-49
2022/07/10 00:30:25;;;;;;;6.85;1.15;;;15.50;99.90;;;;;;4973413;28;20050;-49
2022/07/10 00:32:50;;;;;;;5.80;1.38;;;15.50;99.90;;;;;;4973397;28;20031;-48
2022/07/10 00:35:16;;;;;;;5.28;1.35;;;15.40;99.90;;;;;;4989571;28;20135;-51
2022/07/10 00:37:42;;;;;;;7.00;1.60;;;15.40;99.90;;;;;;4989549;28;20122;-46
2022/07/10 00:40:08;;;;;;;3.65;1.48;;;15.50;99.90;;;;;;4989772;28;20033;-48
2022/07/10 00:42:33;;;;;;;7.30;1.65;;;15.40;99.90;;;;;;4973332;28;20117;-46
2022/07/10 00:44:59;;;;;;;3.50;1.08;;;15.50;99.90;;;;;;4973283;28;20085;-50
2022/07/10 00:47:24;;;;;;;2.45;0.95;;;15.50;99.90;;;;;;4974705;28;20035;-46
2022/07/10 00:49:50;;;;;;;6.68;1.33;;;15.60;99.90;;;;;;4974514;28;20115;-49
2022/07/10 00:52:17;;;;;;;7.10;1.40;;;15.60;99.90;;;;;;4974985;28;20031;-48
2022/07/10 00:54:45;;;;;;;4.90;1.73;;;15.50;99.90;;;;;;4973176;28;20481;-49
2022/07/10 00:57:14;;;;;;;3.85;1.40;;;15.50;99.90;;;;;;4974473;28;20053;-47
2022/07/10 00:59:40;;;;;;;4.40;1.50;;;15.50;99.90;;;;;;4974318;28;20031;-50
2022/07/10 01:02:07;;;;;;;5.90;1.70;;;15.50;99.90;;;;;;4973283;28;20023;-49
2022/07/10 01:04:34;;;;;;;2.80;1.75;;;15.40;99.90;;;;;;4974542;28;20077;-48
2022/07/10 01:06:59;;;;;;;2.80;1.60;;;15.30;99.90;;;;;;4974049;28;20053;-50
2022/07/10 01:09:25;;;;;;;2.45;1.50;;;15.30;99.90;;;;;;4974174;28;20031;-51
2022/07/10 01:11:52;;;;;;;4.30;1.67;;;15.20;99.90;;;;;;4972963;28;20023;-48
2022/07/10 01:14:17;;;;;;;2.35;1.50;;;15.10;99.90;;;;;;4973454;28;20094;-46
2022/07/10 01:16:43;;;;;;;5.28;1.92;;;15.00;99.90;;;;;;4973393;28;20190;-51
2022/07/10 01:19:09;;;;;;;4.40;1.60;;;14.90;99.90;;;;;;4973722;28;20047;-46
2022/07/10 01:21:36;;;;;;;4.40;1.25;;;14.80;99.90;;;;;;4972988;28;20026;-46
2022/07/10 01:24:07;;;;;;;4.28;1.50;;;14.70;99.90;;;;;;4973011;28;20023;-47
2022/07/10 01:26:33;;;;;;;7.10;1.17;;;14.70;99.90;;;;;;4974107;28;20027;-49
2022/07/10 01:29:03;;;;;;;3.97;1.52;;;14.70;99.90;;;;;;4975018;28;20089;-49
2022/07/10 01:31:29;;;;;;;6.18;2.00;;;14.70;99.90;;;;;;4977888;28;20054;-50
2022/07/10 01:33:55;;;;;;;3.15;1.65;;;14.70;99.90;;;;;;4976946;28;20027;-49
2022/07/10 01:36:22;;;;;;;5.95;1.50;;;14.50;99.90;;;;;;4977829;28;20054;-49
2022/07/10 01:38:48;;;;;;;5.88;1.48;;;14.50;99.90;;;;;;4977392;28;20019;-46
2022/07/10 01:41:13;;;;;;;6.68;1.80;;;14.50;99.90;;;;;;4976151;28;20027;-47
2022/07/10 01:43:44;;;;;;;12.55;1.92;;;14.40;99.90;;;;;;4977698;28;20027;-51
2022/07/10 01:46:11;;;;;;;18.67;2.88;;;14.40;99.90;;;;;;4978052;28;20050;-46
2022/07/10 01:48:40;;;;;;;10.68;2.38;;;14.40;99.90;;;;;;4977288;28;20034;-51
2022/07/10 01:51:07;;;;;;;10.50;2.08;;;14.40;99.90;;;;;;4977230;28;20393;-50
2022/07/10 01:53:32;;;;;;;7.88;1.83;;;14.30;99.90;;;;;;4992414;28;20030;-51
2022/07/10 01:56:00;;;;;;;11.35;1.60;;;14.20;99.90;;;;;;4977278;28;20027;-48
2022/07/10 01:58:26;;;;;;;7.63;1.80;;;14.20;99.90;;;;;;4976263;28;20023;-47
2022/07/10 02:01:19;;;;;;;12.40;1.63;;;14.20;99.90;;;;;;4967676;28;20099;-46
2022/07/10 02:06:29;;;;;;;7.07;1.60;;;14.30;99.90;;;;;;4958025;29;20385;-46
2022/07/10 02:08:55;;;;;;;8.82;1.80;;;14.30;99.90;;;;;;4956387;28;20023;-46
2022/07/10 02:11:21;;;;;;;8.80;1.75;;;14.20;99.90;;;;;;4957577;28;20038;-50
2022/07/10 02:13:46;;;;;;;6.53;1.70;;;14.20;99.90;;;;;;4957075;28;20054;-52
2022/07/10 02:16:12;;;;;;;9.90;1.58;;;14.20;99.90;;;;;;4956664;28;20019;-46
2022/07/10 02:18:38;;;;;;;3.58;1.20;;;14.20;99.90;;;;;;4956383;28;20027;-47
2022/07/10 02:21:04;;;;;;;5.28;1.30;;;14.10;99.90;;;;;;4957452;28;20102;-48
2022/07/10 02:23:30;;;;;;;3.47;1.25;;;14.10;99.90;;;;;;4956207;28;20568;-46
2022/07/10 02:25:56;;;;;;;13.05;1.60;;;14.10;99.90;;;;;;4957322;28;20038;-45
2022/07/10 02:28:22;;;;;;;7.70;1.83;;;14.10;99.90;;;;;;4956124;28;20027;-46
2022/07/10 02:30:47;;;;;;;6.60;1.88;;;14.10;99.90;;;;;;4957483;28;20027;-49
2022/07/10 02:33:13;;;;;;;15.25;2.65;;;14.10;99.90;;;;;;4957117;28;20028;-49
2022/07/10 02:35:38;;;;;;;11.30;1.77;;;14.10;99.90;;;;;;4957371;28;20086;-49
2022/07/10 02:38:04;;;;;;;15.50;1.70;;;14.10;99.90;;;;;;4955914;28;20031;-47
2022/07/10 02:40:29;;;;;;;12.65;1.83;;;14.10;99.90;;;;;;4956499;28;20034;-46
2022/07/10 02:42:55;;;;;;;5.93;1.02;;;14.30;99.90;;;;;;4955865;28;20032;-47
2022/07/10 02:45:21;;;;;;;8.45;1.65;;;14.30;99.90;;;;;;4956948;28;20501;-47
2022/07/10 02:47:46;;;;;;;5.05;1.30;;;14.30;99.90;;;;;;4956039;28;20031;-46
2022/07/10 02:50:12;;;;;;;1.58;1.08;;;14.30;99.90;;;;;;4956470;28;20027;-46
2022/07/10 02:52:37;;;;;;;3.78;1.10;;;14.40;99.90;;;;;;4956695;28;20027;-46
2022/07/10 02:55:03;;;;;;;2.83;1.38;;;14.40;99.90;;;;;;4955640;28;20031;-46
2022/07/10 02:57:29;;;;;;;2.53;1.55;;;14.40;99.90;;;;;;4955774;28;20023;-48
2022/07/10 02:59:55;;;;;;;8.10;1.13;;;14.50;99.90;;;;;;4956938;28;20035;-47
2022/07/10 03:02:20;;;;;;;3.65;0.93;;;14.70;99.90;;;;;;4955788;28;20042;-48
2022/07/10 03:04:46;;;;;;;3.60;0.95;;;14.80;99.90;;;;;;4955690;28;20033;-50
2022/07/10 03:07:11;;;;;;;3.78;1.13;;;14.80;99.90;;;;;;4956853;28;20027;-49
2022/07/10 03:09:37;;;;;;;5.57;1.05;;;14.90;99.90;;;;;;4955609;28;20095;-47
2022/07/10 03:12:03;;;;;;;2.22;1.02;;;14.90;99.90;;;;;;4955761;28;20074;-46
2022/07/10 03:14:28;;;;;;;4.50;1.30;;;14.90;99.90;;;;;;4955811;28;20037;-48
2022/07/10 03:16:54;;;;;;;7.15;0.90;;;15.00;99.90;;;;;;4955161;28;20123;-47
2022/07/10 03:19:20;;;;;;;1.90;0.85;;;15.00;99.90;;;;;;4956237;28;20030;-49
2022/07/10 03:21:45;;;;;;;3.13;1.33;;;15.00;99.90;;;;;;4956286;28;20025;-46
2022/07/10 03:24:11;;;;;;;3.72;1.83;;;15.10;99.90;;;;;;4956366;28;20026;-48
2022/07/10 03:26:37;;;;;;;4.22;1.50;;;15.10;99.90;;;;;;4956252;28;20020;-46
2022/07/10 03:29:02;;;;;;;7.88;1.25;;;15.00;99.90;;;;;;4954849;28;20027;-47
2022/07/10 03:31:28;;;;;;;8.57;1.55;;;15.00;99.90;;;;;;4956107;28;20054;-48
2022/07/10 03:33:54;;;;;;;9.30;1.40;;;15.00;99.90;;;;;;4954802;28;20035;-48
2022/07/10 03:36:19;;;;;;;8.85;1.77;;;15.10;99.90;;;;;;4954924;28;20023;-51
2022/07/10 03:38:46;;;;;;;3.65;1.25;;;15.10;99.90;;;;;;4956158;28;20034;-49
2022/07/10 03:41:12;;;;;;;10.98;1.40;;;15.10;99.90;;;;;;4954733;28;20028;-47
2022/07/10 03:43:38;;;;;;;2.97;0.82;;;15.10;99.90;;;;;;4955886;28;20075;-49
2022/07/10 03:46:04;;;;;;;3.67;1.33;;;15.20;99.90;;;;;;4955809;28;20062;-49
2022/07/10 03:48:29;;;;;;;2.83;0.93;;;15.20;99.90;;;;;;4955841;28;20030;-48
2022/07/10 03:50:55;;;;;;;6.80;1.20;;;15.30;99.90;;;;;;4954575;28;20068;-48
2022/07/10 03:53:20;;;;;;;4.18;1.00;;;15.20;99.90;;;;;;4954893;28;20102;-47
2022/07/10 03:55:46;;;;;;;5.82;1.15;;;15.30;99.90;;;;;;4955813;28;20385;-48
2022/07/10 03:58:12;;;;;;;3.42;1.17;;;15.30;99.90;;;;;;4954886;28;20154;-46
2022/07/10 04:00:38;;;;;;;2.33;1.00;;;15.40;99.90;;;;;;4954918;28;20035;-54
2022/07/10 04:03:07;;;;;;;7.10;2.03;;;15.40;99.90;;;;;;4970677;28;20031;-48
2022/07/10 04:05:34;;;;;;;3.20;1.00;;;15.50;99.90;;;;;;4955830;28;20035;-46
2022/07/10 04:08:01;;;;;;;4.03;1.30;;;15.50;99.90;;;;;;4970434;28;20032;-47
2022/07/10 04:10:27;;;;;;;4.50;1.20;;;15.60;99.90;;;;;;4954236;28;20051;-48
2022/07/10 04:12:53;;;;;;;8.13;1.67;;;15.50;99.90;;;;;;4955465;28;20019;-46
2022/07/10 04:15:20;;;;;;;5.70;1.27;;;15.60;99.90;;;;;;4955475;28;20031;-47
2022/07/10 04:17:46;;;;;;;7.60;1.20;;;15.70;99.90;;;;;;4970363;28;20027;-46
2022/07/10 04:20:12;;;;;;;9.00;1.73;;;15.80;99.90;;;;;;4954730;28;20024;-46
2022/07/10 04:22:38;;;;;;;3.83;1.23;;;15.90;99.90;;;;;;4955362;28;20027;-46
2022/07/10 04:25:05;;;;;;;4.40;1.65;;;16.00;99.90;;;;;;4954193;28;20041;-46
2022/07/10 04:27:31;;;;;;;2.58;1.00;;;15.90;99.90;;;;;;4970197;28;20118;-46
2022/07/10 04:29:56;;;;;;;7.53;1.52;;;15.90;99.90;;;;;;4954021;29;20118;-47
2022/07/10 04:32:22;;;;;;;6.95;1.30;;;15.80;99.90;;;;;;4954897;28;20377;-47
2022/07/10 04:34:48;;;;;;;11.40;1.23;;;15.90;99.90;;;;;;4955263;28;20030;-50
2022/07/10 04:37:13;;;;;;;1.80;0.80;;;15.90;99.90;;;;;;4955374;28;20027;-46
2022/07/10 04:39:39;;;;;;;6.07;1.00;;;15.90;99.90;;;;;;4955383;28;20024;-50
2022/07/10 04:42:09;;;;;;;2.55;1.10;;;16.00;99.90;;;;;;4970091;28;20027;-46
2022/07/10 04:44:36;;;;;;;4.07;0.90;;;16.10;99.90;;;;;;4970374;28;20038;-47
2022/07/10 04:47:02;;;;;;;6.47;1.15;;;16.10;99.90;;;;;;4953985;28;20441;-46
2022/07/10 04:49:28;;;;;;;6.97;1.00;;;16.20;99.90;;;;;;4954973;28;20027;-47
2022/07/10 04:51:56;;;;;;;3.13;0.95;;;16.20;99.90;;;;;;4955095;28;20418;-46
2022/07/10 04:54:21;;;;;;;6.53;0.80;;;16.20;99.90;;;;;;4969940;28;20481;-49
2022/07/10 04:56:47;;;;;;;2.25;0.80;;;16.30;99.90;;;;;;4955021;28;20055;-47
2022/07/10 04:59:13;;;;;;;4.43;0.75;;;16.30;99.90;;;;;;4969683;28;20035;-48
2022/07/10 05:01:38;;;;;;;5.75;0.95;;;16.40;99.90;;;;;;4970445;28;20039;-50
2022/07/10 05:04:04;;;;;;;9.00;1.25;;;16.40;99.90;;;;;;4956009;28;20134;-46
2022/07/10 05:06:30;;;;;;;2.00;1.00;;;16.40;99.90;;;;;;4973605;28;20048;-48
2022/07/10 05:08:56;;;;;;;3.85;1.17;;;16.40;99.90;;;;;;4957799;29;20027;-46
2022/07/10 05:11:22;;;;;;;1.85;0.80;;;16.50;99.90;;;;;;4974495;28;20031;-46
2022/07/10 05:13:48;;;;;;;5.20;0.70;;;16.50;99.90;;;;;;4974338;28;20027;-48
2022/07/10 05:16:14;;;;;;;3.65;0.90;;;16.50;99.90;;;;;;4973532;28;20019;-47
2022/07/10 05:18:40;;;;;;;2.45;0.80;;;16.40;99.90;;;;;;4973491;28;20094;-47
2022/07/10 05:21:07;;;;;;;4.63;0.95;;;16.40;99.90;;;;;;4958878;28;20099;-45
2022/07/10 05:23:32;;;;;;;3.75;1.25;;;16.40;99.90;;;;;;4973345;28;20031;-47
2022/07/10 05:25:58;;;;;;;3.15;0.90;;;16.50;99.90;;;;;;4958469;28;20442;-51
2022/07/10 05:28:23;;;;;;;6.07;0.90;;;16.60;99.90;;;;;;4958671;28;20043;-49
2022/07/10 05:30:49;;;;;;;4.05;1.00;;;16.70;99.90;;;;;;4973184;28;20027;-47
2022/07/10 05:33:18;;;;;;;4.18;0.80;;;16.70;99.90;;;;;;4973176;28;20058;-48
2022/07/10 05:35:44;;;;;;;7.13;0.90;;;16.80;99.90;;;;;;4973128;28;20020;-51
2022/07/10 05:38:10;;;;;;;3.40;0.73;;;16.80;99.90;;;;;;4958480;28;20087;-50
2022/07/10 05:40:36;;;;;;;4.82;0.95;;;16.90;99.90;;;;;;4973402;28;20078;-48
2022/07/10 05:43:01;;;;;;;4.45;0.77;;;17.00;99.90;;;;;;4973564;28;20549;-47
2022/07/10 05:45:27;;;;;;;1.67;1.20;;;17.20;99.90;;;;;;4973652;28;20027;-49
2022/07/10 05:47:53;;;;;;;4.85;1.35;;;17.30;99.90;;;;;;4956824;28;20035;-52
2022/07/10 05:50:19;;;;;;;2.67;0.60;;;17.30;99.90;;;;;;4958010;28;20042;-47
2022/07/10 05:52:44;;;;;;;3.25;1.20;;;17.30;99.90;;;;;;4972919;28;20063;-48
2022/07/10 05:55:10;;;;;;;3.38;0.95;;;17.50;99.90;;;;;;4972896;28;20027;-49
2022/07/10 05:57:54;;;;;;;6.07;0.98;;;17.40;99.90;;;;;;4957949;28;20019;-51
2022/07/10 06:00:20;;;;;;;2.38;0.80;;;17.50;99.90;;;;;;4958252;28;20027;-52
2022/07/10 06:02:45;;;;;;;6.13;0.70;;;17.50;99.90;;;;;;4964211;28;20122;-48
2022/07/10 06:05:12;;;;;;;3.58;0.60;;;17.60;99.90;;;;;;4973060;28;20055;-47
2022/07/10 06:07:38;;;;;;;2.08;0.75;;;17.70;99.90;;;;;;4973029;28;20078;-47
2022/07/10 06:10:05;;;;;;;4.75;0.95;;;17.80;99.90;;;;;;4957929;28;20019;-50
2022/07/10 06:12:31;;;;;;;5.18;0.90;;;17.80;99.90;;;;;;4972784;28;20065;-51
2022/07/10 06:14:56;;;;;;;5.30;0.80;;;17.80;99.90;;;;;;4956609;28;20027;-46
2022/07/10 06:17:22;;;;;;;5.57;1.23;;;17.70;99.90;;;;;;4957445;28;20050;-50
2022/07/10 06:19:48;;;;;;;6.13;0.75;;;17.70;99.90;;;;;;4957501;28;20482;-48
2022/07/10 06:22:33;;;;;;;4.45;0.85;;;17.80;99.90;;;;;;4973202;28;20122;-47
2022/07/10 06:25:06;;;;;;;4.57;1.10;;;17.70;99.90;;;;;;4957784;28;20025;-46
2022/07/10 06:27:32;;;;;;;3.55;0.93;;;17.80;99.90;;;;;;4957313;28;20023;-47
2022/07/10 06:29:59;;;;;;;2.60;0.63;;;17.80;99.90;;;;;;4972141;28;20023;-47
2022/07/10 06:32:25;;;;;;;5.75;1.20;;;17.80;99.90;;;;;;4957495;28;20031;-51
2022/07/10 06:34:52;;;;;;;3.45;0.70;;;17.80;99.90;;;;;;4973318;28;20023;-48
2022/07/10 06:37:18;;;;;;;2.47;0.90;;;18.00;99.90;;;;;;4972034;28;20023;-49
2022/07/10 06:39:45;;;;;;;2.15;0.70;;;18.00;99.90;;;;;;4971976;28;20019;-50
2022/07/10 06:42:11;;;;;;;2.08;0.55;;;18.00;99.90;;;;;;4972135;28;20086;-49
2022/07/10 06:44:37;;;;;;;3.30;0.80;;;18.10;99.90;;;;;;4957390;28;20059;-51
2022/07/10 06:49:48;;;;;;;4.53;1.00;;;18.30;99.90;;;;;;4957255;29;20058;-50
2022/07/10 06:52:14;;;;;;;6.05;0.95;;;18.30;99.90;;;;;;4972604;28;20054;-50
2022/07/10 06:54:40;;;;;;;4.03;0.70;;;18.30;99.90;;;;;;4971778;28;20030;-46
2022/07/10 06:57:06;;;;;;;1.88;0.80;;;18.30;99.90;;;;;;4957140;28;20533;-47
2022/07/10 06:59:32;;;;;;;4.25;1.15;;;18.20;99.90;;;;;;4974494;28;20058;-47
2022/07/10 07:01:57;;;;;;;6.35;1.05;;;18.20;99.90;;;;;;4976040;28;20101;-50
2022/07/10 07:04:23;;;;;;;4.00;0.95;;;18.20;99.90;;;;;;4974696;28;20018;-48
2022/07/10 07:06:49;;;;;;;4.63;0.70;;;18.20;99.90;;;;;;4975513;28;20022;-48
2022/07/10 07:09:14;;;;;;;2.47;0.80;;;18.20;99.90;;;;;;4974647;28;20138;-49
2022/07/10 07:11:40;;;;;;;3.53;0.70;;;18.30;99.90;;;;;;4990847;28;20043;-47
2022/07/10 07:14:05;;;;;;;3.60;1.10;;;18.30;99.90;;;;;;4974918;28;20027;-47
2022/07/10 07:17:21;;;;;;;4.68;0.95;;;18.40;99.90;;;;;;4970989;28;20019;-46
2022/07/10 07:25:12;;;;;;;5.47;0.90;;;18.80;99.90;;;;;;4956587;29;20078;-48
2022/07/10 07:27:39;;;;;;;2.30;0.50;;;19.10;99.90;;;;;;4955226;28;20055;-49
2022/07/10 07:30:14;;;;;;;4.35;0.90;;;19.60;99.90;;;;;;4956157;28;20486;-50
2022/07/10 07:32:41;;;;;;;4.28;1.15;;;20.00;99.90;;;;;;4956194;28;20027;-49
2022/07/10 07:35:07;;;;;;;5.43;1.33;;;20.30;99.90;;;;;;4955116;28;20485;-47
2022/07/10 07:37:50;;;;;;;3.42;0.88;;;20.50;99.90;;;;;;4955415;28;20075;-52
2022/07/10 07:40:22;;;;;;;2.70;0.63;;;20.50;99.90;;;;;;4956039;28;20031;-47
2022/07/10 07:42:55;;;;;;;4.25;0.70;;;20.50;99.90;;;;;;4955145;28;20031;-49
2022/07/10 07:45:21;;;;;;;1.20;0.50;;;20.30;99.90;;;;;;4954781;28;20032;-47
2022/07/10 07:47:51;;;;;;;5.43;1.10;;;20.30;99.90;;;;;;4964971;28;20106;-47
2022/07/10 07:50:19;;;;;;;5.72;0.82;;;20.30;99.90;;;;;;4973943;28;20051;-49
2022/07/10 07:52:45;;;;;;;2.58;0.82;;;20.20;99.90;;;;;;4973620;28;20030;-53
2022/07/10 07:55:12;;;;;;;6.80;0.85;;;19.90;99.90;;;;;;4973966;28;20023;-50
2022/07/10 07:57:38;;;;;;;5.55;1.27;;;20.10;99.90;;;;;;4991282;28;20030;-47
2022/07/10 08:00:07;;;;;;;3.50;1.27;;;20.10;99.90;;;;;;4975036;28;20029;-47
2022/07/10 08:02:33;;;;;;;3.70;0.93;;;20.20;99.90;;;;;;4973971;28;20444;-46
2022/07/10 08:04:58;;;;;;;5.82;0.85;;;20.50;99.90;;;;;;4973686;28;20081;-51
2022/07/10 08:07:42;;;;;;;4.25;0.90;;;20.80;99.90;;;;;;4983109;28;20092;-47
2022/07/10 08:10:09;;;;;;;5.10;0.77;;;20.90;99.90;;;;;;4973580;28;20023;-46
2022/07/10 08:12:35;;;;;;;4.18;1.02;;;20.80;99.90;;;;;;4974719;28;20035;-49
2022/07/10 08:15:00;;;;;;;5.35;1.10;;;20.70;99.90;;;;;;4974773;28;20023;-47
2022/07/10 08:17:27;;;;;;;2.63;0.77;;;20.60;99.90;;;;;;4974784;28;20458;-46
2022/07/10 08:19:53;;;;;;;4.25;1.23;;;20.40;99.90;;;;;;4975022;28;20023;-49
2022/07/10 08:22:19;;;;;;;2.90;0.95;;;20.40;99.90;;;;;;4974637;28;20015;-49
2022/07/10 08:24:44;;;;;;;3.08;0.80;;;20.40;99.90;;;;;;4973573;28;20033;-47
2022/07/10 08:27:10;;;;;;;1.92;0.82;;;20.50;99.90;;;;;;4974988;28;20026;-47
2022/07/10 08:29:36;;;;;;;3.53;1.05;;;20.50;99.90;;;;;;4973165;28;20569;-49
2022/07/10 08:32:20;;;;;;;4.10;0.90;;;20.50;99.90;;;;;;4969426;28;20133;-47
2022/07/10 08:34:47;;;;;;;5.28;0.98;;;20.50;99.90;;;;;;4954240;28;20019;-47
2022/07/10 08:37:13;;;;;;;4.82;1.50;;;20.60;99.90;;;;;;4955618;28;20019;-49
2022/07/10 08:39:39;;;;;;;3.78;0.80;;;20.70;99.90;;;;;;4954637;28;20066;-48
2022/07/10 08:42:07;;;;;;;4.53;0.80;;;20.80;99.90;;;;;;4965070;28;20034;-47
2022/07/10 08:44:34;;;;;;;3.60;0.70;;;20.70;99.90;;;;;;4973271;28;20027;-46
2022/07/10 08:47:00;;;;;;;3.90;0.85;;;20.90;99.90;;;;;;4973507;28;20027;-48
2022/07/10 08:49:28;;;;;;;4.32;1.50;;;21.10;99.90;;;;;;4974715;28;20027;-47
2022/07/10 08:52:06;;;;;;;3.67;0.80;;;21.20;99.90;;;;;;4974339;28;20417;-48
2022/07/10 08:54:33;;;;;;;3.58;0.98;;;21.40;99.90;;;;;;4974544;28;20027;-47
2022/07/10 08:57:01;;;;;;;2.40;0.98;;;22.20;99.90;;;;;;4973169;28;20058;-47
2022/07/10 08:59:27;;;;;;;5.93;0.93;;;24.20;99.90;;;;;;4974399;28;20548;-52
2022/07/10 09:01:53;;;;;;;5.82;1.30;;;25.80;99.90;;;;;;4973455;28;20027;-52
2022/07/10 09:04:25;;;;;;;5.18;1.80;;;27.00;99.90;;;;;;4973435;28;20034;-50
2022/07/10 09:06:52;;;;;;;7.68;1.60;;;27.60;99.90;;;;;;4973226;28;20118;-49
2022/07/10 09:09:17;;;;;;;2.90;1.25;;;27.90;96.90;;;;;;4974535;28;20023;-52
2022/07/10 09:11:43;;;;;;;5.65;1.05;;;28.00;94.00;;;;;;4974220;28;20027;-50
2022/07/10 09:14:13;;;;;;;4.00;1.10;;;27.70;93.10;;;;;;4989151;28;20027;-48
2022/07/10 09:16:45;;;;;;;5.10;1.02;;;27.10;94.80;;;;;;4989205;28;20023;-47
2022/07/10 09:19:24;;;;;;;4.75;1.10;;;26.20;94.90;;;;;;4973384;28;20030;-51
2022/07/10 09:22:03;;;;;;;4.90;1.00;;;25.20;95.40;;;;;;4974165;28;20023;-52
2022/07/10 09:24:36;;;;;;;5.03;1.05;;;24.50;97.10;;;;;;4973404;28;20077;-49
2022/07/10 09:27:03;;;;;;;2.92;1.00;;;23.90;97.40;;;;;;4974968;28;20027;-49
2022/07/10 09:29:30;;;;;;;4.95;1.10;;;23.40;98.60;;;;;;4974055;28;20486;-48
2022/07/10 09:31:57;;;;;;;3.03;0.90;;;23.30;99.90;;;;;;4988914;28;20038;-50
2022/07/10 09:34:36;;;;;;;4.00;1.98;;;23.20;99.60;;;;;;4972912;28;20385;-49
2022/07/10 09:37:28;;;;;;;7.57;1.17;;;23.30;98.90;;;;;;4973351;28;20019;-47
2022/07/10 09:39:53;;;;;;;;;;;24.50;98.00;;;;;;4974399;28;20043;-47
2022/07/10 09:42:34;;;;;;;4.57;1.33;;;25.90;96.90;;;;;;4974009;28;19964;-49
2022/07/10 09:45:17;;;;;;;4.10;1.10;;;26.80;95.30;;;;;;4973976;28;20034;-49
2022/07/10 09:47:46;;;;;;;4.43;0.93;;;26.80;93.00;;;;;;4989960;28;20037;-48
2022/07/10 09:50:25;;;;;;;2.70;1.27;;;26.00;93.70;;;;;;4973203;28;20393;-49
2022/07/10 09:52:52;;;;;;;4.97;1.25;;;25.40;93.30;;;;;;4992362;28;20027;-47
2022/07/10 09:55:24;;;;;;;2.53;1.00;;;24.70;94.90;;;;;;4992219;28;20054;-49
2022/07/10 09:58:01;;;;;;;6.75;1.10;;;24.60;95.90;;;;;;4977323;28;20023;-48
2022/07/10 10:00:31;;;;;;;3.10;0.90;;;24.50;94.50;;;;;;4975369;28;20041;-47
2022/07/10 10:03:01;;;;;;;7.78;1.00;;;24.60;94.40;;;;;;4977078;28;20098;-48
2022/07/10 10:05:32;;;;;;;1.73;0.68;;;25.00;93.20;;;;;;4976354;28;20473;-49
2022/07/10 10:08:11;;;;;;;3.50;0.88;;;25.10;92.60;;;;;;4975967;28;20030;-47
2022/07/10 10:10:42;;;;;;;2.00;0.90;;;25.20;92.90;;;;;;4977354;28;20027;-51
2022/07/10 10:13:11;;;;;;;3.50;1.00;;;25.60;90.90;;;;;;4976859;28;20031;-47
2022/07/10 10:15:38;;;;;;;4.68;0.80;;;25.80;91.30;;;;;;4977190;28;20046;-52
2022/07/10 10:18:04;;;;;;;1.30;0.63;;;26.00;91.40;;;;;;4975552;28;20072;-47
2022/07/10 10:20:41;;;;;;;3.50;0.90;;;26.40;91.20;;;;;;4976937;28;20084;-48
2022/07/10 10:23:20;;;;;;;2.45;1.10;;;26.60;91.20;;;;;;4976477;28;20096;-48
2022/07/10 10:25:50;;;;;;;3.72;1.42;;;26.50;91.20;;;;;;4976843;28;20063;-48
2022/07/10 10:28:17;;;;;;;2.08;1.02;;;25.80;90.80;;;;;;4976922;28;20552;-48
2022/07/10 10:30:45;;;;;;;4.38;0.98;;;25.50;91.40;;;;;;4975434;28;20477;-51
2022/07/10 10:33:32;;;;;;;2.72;0.63;;;25.50;91.30;;;;;;4975313;28;20117;-48
2022/07/10 10:36:01;;;;;;;2.85;0.80;;;25.20;93.60;;;;;;4975328;28;20027;-53
2022/07/10 10:38:55;;;;;;;3.42;1.02;;;25.10;90.70;;;;;;4975385;28;20019;-49
2022/07/10 10:41:26;;;;;;;2.80;1.05;;;25.10;91.50;;;;;;4975947;28;20027;-49
2022/07/10 10:44:07;;;;;;;3.05;0.90;;;25.00;91.80;;;;;;4976532;28;20030;-49
2022/07/10 10:46:33;;;;;;;3.38;0.95;;;25.00;91.10;;;;;;4976329;28;20544;-47
2022/07/10 10:49:06;;;;;;;4.95;1.00;;;25.00;90.70;;;;;;4976230;28;20062;-48
2022/07/10 10:52:03;;;;;;;3.55;0.70;;;25.00;90.70;;;;;;4974947;28;20084;-52
2022/07/10 10:54:30;;;;;;;5.72;0.73;;;24.80;90.60;;;;;;4976246;28;20033;-49
2022/07/10 10:57:16;;;;;;;4.28;0.85;;;24.70;90.30;;;;;;4975767;28;20026;-52
2022/07/10 10:59:49;;;;;;;5.03;0.80;;;24.70;90.50;;;;;;4974686;28;20031;-49
2022/07/10 11:02:27;;;;;;;3.38;0.93;;;24.70;91.40;;;;;;4975437;28;20026;-51
2022/07/10 11:05:14;;;;;;;3.25;0.95;;;24.80;90.50;;;;;;4975744;28;20022;-52
2022/07/10 11:07:59;;;;;;;1.40;0.80;;;24.80;90.60;;;;;;4975778;28;20030;-51
2022/07/10 11:10:38;;;;;;;4.65;0.77;;;24.80;89.50;;;;;;4975922;28;20033;-49
2022/07/10 11:13:14;;;;;;;2.53;0.68;;;25.00;90.00;;;;;;4976106;28;20030;-50
2022/07/10 11:15:42;;;;;;;7.88;1.10;;;25.10;88.70;;;;;;4975871;28;20030;-49
2022/07/10 11:18:14;;;;;;;3.78;1.05;;;25.10;89.60;;;;;;4976286;28;20028;-51
2022/07/10 11:20:46;;;;;;;3.85;0.88;;;25.00;88.50;;;;;;4975672;28;20030;-49
2022/07/10 11:23:49;;;;;;;3.00;0.90;;;25.00;89.40;;;;;;4975934;28;20113;-52
2022/07/10 11:26:24;;;;;;;4.35;0.80;;;25.00;90.60;;;;;;4974921;28;20033;-47
2022/07/10 11:28:54;;;;;;;4.28;0.98;;;24.80;87.00;;;;;;4975630;28;20058;-49
2022/07/10 11:31:23;;;;;;;4.65;0.88;;;24.70;90.50;;;;;;4974570;28;20037;-47
2022/07/10 11:33:51;;;;;;;3.85;0.63;;;24.40;90.50;;;;;;4974257;28;20058;-47
2022/07/10 11:36:19;;;;;;;4.03;0.77;;;24.40;89.90;;;;;;4975293;28;20034;-50
2022/07/10 11:38:45;;;;;;;3.95;0.70;;;24.20;89.60;;;;;;4975409;28;20123;-50
2022/07/10 11:41:19;;;;;;;2.42;0.82;;;24.00;89.40;;;;;;4974958;28;20061;-49
2022/07/10 11:43:48;;;;;;;2.22;0.80;;;23.90;90.30;;;;;;4974573;28;20057;-46
2022/07/10 11:46:14;;;;;;;2.80;0.60;;;23.70;90.60;;;;;;4974698;28;20428;-50
2022/07/10 11:48:40;;;;;;;3.55;0.70;;;23.70;90.20;;;;;;4974140;28;20026;-49
2022/07/10 11:51:26;;;;;;;5.90;0.90;;;23.70;90.90;;;;;;4974266;28;20070;-51
2022/07/10 11:54:11;;;;;;;6.63;0.85;;;23.60;90.80;;;;;;4974386;28;20027;-49
2022/07/10 11:56:41;;;;;;;2.35;0.73;;;23.70;90.30;;;;;;4973710;28;20027;-49
2022/07/10 11:59:09;;;;;;;4.88;0.85;;;23.60;90.70;;;;;;4973719;28;20023;-49
2022/07/10 12:01:44;;;;;;;2.42;1.08;;;23.70;91.10;;;;;;4975369;28;20027;-51
2022/07/10 12:04:11;;;;;;;1.45;0.57;;;23.90;91.30;;;;;;4975028;28;20026;-47
2022/07/10 12:06:46;;;;;;;5.45;1.17;;;23.90;91.50;;;;;;4975067;28;20027;-47
2022/07/10 12:09:16;;;;;;;2.28;0.70;;;23.90;91.50;;;;;;4975007;28;20027;-48
2022/07/10 12:11:44;;;;;;;2.10;0.52;;;24.00;91.30;;;;;;4975371;28;20037;-49
2022/07/10 12:14:14;;;;;;;2.20;0.60;;;24.00;91.40;;;;;;4974206;28;20042;-50
2022/07/10 12:16:44;;;;;;;2.28;0.73;;;24.10;91.30;;;;;;4973834;28;20027;-50
2022/07/10 12:19:14;;;;;;;3.90;0.77;;;24.00;90.90;;;;;;4975116;28;20019;-52
2022/07/10 12:21:45;;;;;;;5.07;0.90;;;23.90;91.20;;;;;;4974934;28;20019;-51
2022/07/10 12:24:12;;;;;;;3.97;0.70;;;23.80;90.80;;;;;;4974877;28;20027;-50
2022/07/10 12:26:41;;;;;;;3.05;0.70;;;23.80;91.50;;;;;;4973722;28;20035;-47
2022/07/10 12:29:18;;;;;;;4.32;0.80;;;23.70;91.70;;;;;;4973612;28;20022;-50
2022/07/10 12:31:45;;;;;;;2.50;0.80;;;23.70;91.40;;;;;;4973668;28;20115;-49
2022/07/10 12:34:11;;;;;;;2.72;1.00;;;23.60;91.30;;;;;;4974817;28;20031;-47
2022/07/10 12:36:49;;;;;;;3.28;0.70;;;23.60;91.70;;;;;;4974801;28;20026;-47
2022/07/10 12:39:17;;;;;;;3.90;0.90;;;23.70;91.60;;;;;;4974667;28;20087;-48
2022/07/10 12:42:03;;;;;;;1.75;0.80;;;23.90;92.20;;;;;;4974615;28;20094;-51
2022/07/10 12:44:46;;;;;;;2.58;0.70;;;24.10;91.80;;;;;;4973278;28;20054;-48
2022/07/10 12:47:13;;;;;;;2.88;0.90;;;24.20;91.10;;;;;;4974187;28;20023;-51
2022/07/10 12:49:55;;;;;;;2.42;0.80;;;24.30;91.60;;;;;;4973165;28;20113;-50
2022/07/10 12:52:21;;;;;;;2.80;0.60;;;24.50;91.30;;;;;;4974406;28;20023;-50
2022/07/10 12:58:14;;;;;;;2.40;0.65;;;24.40;90.70;;;;;;4955706;28;20042;-52
2022/07/10 13:00:45;;;;;;;2.05;0.65;;;24.20;91.30;;;;;;4970268;28;20036;-52
2022/07/10 13:03:17;;;;;;;2.10;0.88;;;24.20;91.60;;;;;;4955165;28;20050;-47
2022/07/10 13:05:43;;;;;;;0.90;0.50;;;24.10;91.50;;;;;;4970129;28;20060;-50
2022/07/10 13:08:24;;;;;;;3.95;0.77;;;24.00;91.70;;;;;;4970439;28;20143;-51